sensor_id;sensor_type;location;lat;lon;timestamp;P1;durP1;ratioP1;P2;durP2;ratioP2
39654;SDS011;25336;59.944;11.010;2023-07-20T00:00:01;0.50;;;0.50;;
39654;SDS011;25336;59.944;11.010;2023-07-20T00:02:28;0.65;;;0.65;;
39654;SDS011;25336;59.944;11.010;2023-07-20T00:04:54;0.65;;;0.60;;
39654;SDS011;25336;59.944;11.010;2023-07-20T00:07:20;0.50;;;0.50;;
39654;SDS011;25336;59.944;11.010;2023-07-20T00:09:45;0.57;;;0.57;;
39654;SDS011;25336;59.944;11.010;2023-07-20T00:12:11;0.50;;;0.50;;
39654;SDS011;25336;59.944;11.010;2023-07-20T00:14:36;0.50;;;0.50;;
39654;SDS011;25336;59.944;11.010;2023-07-20T00:17:02;0.50;;;0.50;;
39654;SDS011;25336;59.944;11.010;2023-07-20T00:19:28;0.50;;;0.50;;
39654;SDS011;25336;59.944;11.010;2023-07-20T00:21:54;0.70;;;0.45;;
39654;SDS011;25336;59.944;11.010;2023-07-20T00:24:20;2.15;;;0.60;;
39654;SDS011;25336;59.944;11.010;2023-07-20T00:26:45;0.57;;;0.57;;
39654;SDS011;25336;59.944;11.010;2023-07-20T00:29:11;2.42;;;0.50;;
39654;SDS011;25336;59.944;11.010;2023-07-20T00:31:37;0.47;;;0.47;;
39654;SDS011;25336;59.944;11.010;2023-07-20T00:34:03;0.70;;;0.50;;
39654;SDS011;25336;59.944;11.010;2023-07-20T00:36:29;0.40;;;0.40;;
39654;SDS011;25336;59.944;11.010;2023-07-20T00:38:54;1.02;;;0.60;;
39654;SDS011;25336;59.944;11.010;2023-07-20T00:41:20;1.45;;;0.95;;
39654;SDS011;25336;59.944;11.010;2023-07-20T00:43:46;1.48;;;1.10;;
39654;SDS011;25336;59.944;11.010;2023-07-20T00:46:12;1.00;;;1.00;;
39654;SDS011;25336;59.944;11.010;2023-07-20T00:48:38;0.98;;;0.70;;
39654;SDS011;25336;59.944;11.010;2023-07-20T00:51:06;0.70;;;0.70;;
39654;SDS011;25336;59.944;11.010;2023-07-20T00:53:32;0.55;;;0.55;;
39654;SDS011;25336;59.944;11.010;2023-07-20T00:55:58;0.60;;;0.60;;
39654;SDS011;25336;59.944;11.010;2023-07-20T00:58:23;0.57;;;0.57;;
39654;SDS011;25336;59.944;11.010;2023-07-20T01:00:49;1.05;;;0.60;;
39654;SDS011;25336;59.944;11.010;2023-07-20T01:03:15;0.60;;;0.60;;
39654;SDS011;25336;59.944;11.010;2023-07-20T01:11:16;1.13;;;0.65;;
39654;SDS011;25336;59.944;11.010;2023-07-20T01:14:03;0.73;;;0.60;;
39654;SDS011;25336;59.944;11.010;2023-07-20T01:16:29;0.68;;;0.68;;
39654;SDS011;25336;59.944;11.010;2023-07-20T01:18:55;0.55;;;0.55;;
39654;SDS011;25336;59.944;11.010;2023-07-20T01:21:23;0.70;;;0.70;;
39654;SDS011;25336;59.944;11.010;2023-07-20T01:24:00;0.60;;;0.60;;
39654;SDS011;25336;59.944;11.010;2023-07-20T01:29:26;0.57;;;0.57;;
39654;SDS011;25336;59.944;11.010;2023-07-20T01:31:59;0.55;;;0.55;;
39654;SDS011;25336;59.944;11.010;2023-07-20T01:34:28;2.45;;;0.60;;
39654;SDS011;25336;59.944;11.010;2023-07-20T01:36:56;2.28;;;0.50;;
39654;SDS011;25336;59.944;11.010;2023-07-20T01:39:22;0.98;;;0.85;;
39654;SDS011;25336;59.944;11.010;2023-07-20T01:41:49;1.08;;;0.63;;
39654;SDS011;25336;59.944;11.010;2023-07-20T01:44:15;0.60;;;0.60;;
39654;SDS011;25336;59.944;11.010;2023-07-20T01:46:41;1.42;;;0.70;;
39654;SDS011;25336;59.944;11.010;2023-07-20T01:49:06;0.77;;;0.68;;
39654;SDS011;25336;59.944;11.010;2023-07-20T01:51:32;0.60;;;0.60;;
39654;SDS011;25336;59.944;11.010;2023-07-20T01:53:57;0.60;;;0.60;;
39654;SDS011;25336;59.944;11.010;2023-07-20T01:56:23;1.75;;;0.60;;
39654;SDS011;25336;59.944;11.010;2023-07-20T01:58:49;2.38;;;0.70;;
39654;SDS011;25336;59.944;11.010;2023-07-20T02:01:14;0.73;;;0.73;;
39654;SDS011;25336;59.944;11.010;2023-07-20T02:03:40;0.60;;;0.60;;
39654;SDS011;25336;59.944;11.010;2023-07-20T02:06:05;0.70;;;0.70;;
39654;SDS011;25336;59.944;11.010;2023-07-20T02:08:31;0.60;;;0.60;;
39654;SDS011;25336;59.944;11.010;2023-07-20T02:10:57;0.70;;;0.70;;
39654;SDS011;25336;59.944;11.010;2023-07-20T02:13:22;0.65;;;0.65;;
39654;SDS011;25336;59.944;11.010;2023-07-20T02:15:48;0.52;;;0.52;;
39654;SDS011;25336;59.944;11.010;2023-07-20T02:18:14;0.60;;;0.60;;
39654;SDS011;25336;59.944;11.010;2023-07-20T02:20:40;0.60;;;0.60;;
39654;SDS011;25336;59.944;11.010;2023-07-20T02:23:07;0.60;;;0.60;;
39654;SDS011;25336;59.944;11.010;2023-07-20T02:25:32;0.70;;;0.70;;
39654;SDS011;25336;59.944;11.010;2023-07-20T02:27:58;0.63;;;0.63;;
39654;SDS011;25336;59.944;11.010;2023-07-20T02:30:24;1.50;;;0.60;;
39654;SDS011;25336;59.944;11.010;2023-07-20T02:32:49;0.50;;;0.50;;
39654;SDS011;25336;59.944;11.010;2023-07-20T02:35:15;0.70;;;0.70;;
39654;SDS011;25336;59.944;11.010;2023-07-20T02:37:41;4.28;;;0.70;;
39654;SDS011;25336;59.944;11.010;2023-07-20T02:40:07;0.60;;;0.60;;
39654;SDS011;25336;59.944;11.010;2023-07-20T02:42:34;0.50;;;0.50;;
39654;SDS011;25336;59.944;11.010;2023-07-20T02:45:00;0.60;;;0.60;;
39654;SDS011;25336;59.944;11.010;2023-07-20T02:47:26;2.75;;;0.60;;
39654;SDS011;25336;59.944;11.010;2023-07-20T02:49:52;0.52;;;0.52;;
39654;SDS011;25336;59.944;11.010;2023-07-20T02:52:17;0.60;;;0.60;;
39654;SDS011;25336;59.944;11.010;2023-07-20T02:54:43;0.50;;;0.50;;
39654;SDS011;25336;59.944;11.010;2023-07-20T02:57:09;0.60;;;0.60;;
39654;SDS011;25336;59.944;11.010;2023-07-20T02:59:34;1.30;;;0.60;;
39654;SDS011;25336;59.944;11.010;2023-07-20T03:02:00;0.73;;;0.60;;
39654;SDS011;25336;59.944;11.010;2023-07-20T03:04:26;1.38;;;0.60;;
39654;SDS011;25336;59.944;11.010;2023-07-20T03:06:52;0.57;;;0.57;;
39654;SDS011;25336;59.944;11.010;2023-07-20T03:09:18;1.13;;;0.60;;
39654;SDS011;25336;59.944;11.010;2023-07-20T03:11:44;0.63;;;0.60;;
39654;SDS011;25336;59.944;11.010;2023-07-20T03:14:09;0.60;;;0.60;;
39654;SDS011;25336;59.944;11.010;2023-07-20T03:16:35;0.77;;;0.77;;
39654;SDS011;25336;59.944;11.010;2023-07-20T03:19:01;0.63;;;0.63;;
39654;SDS011;25336;59.944;11.010;2023-07-20T03:21:28;2.97;;;0.68;;
39654;SDS011;25336;59.944;11.010;2023-07-20T03:23:54;0.60;;;0.60;;
39654;SDS011;25336;59.944;11.010;2023-07-20T03:26:20;0.88;;;0.80;;
39654;SDS011;25336;59.944;11.010;2023-07-20T03:28:45;6.07;;;0.80;;
39654;SDS011;25336;59.944;11.010;2023-07-20T03:31:11;0.50;;;0.50;;
39654;SDS011;25336;59.944;11.010;2023-07-20T03:33:37;0.50;;;0.50;;
39654;SDS011;25336;59.944;11.010;2023-07-20T03:36:03;1.65;;;0.70;;
39654;SDS011;25336;59.944;11.010;2023-07-20T03:38:28;0.60;;;0.60;;
39654;SDS011;25336;59.944;11.010;2023-07-20T03:40:55;2.08;;;0.63;;
39654;SDS011;25336;59.944;11.010;2023-07-20T03:43:22;2.55;;;0.68;;
39654;SDS011;25336;59.944;11.010;2023-07-20T03:45:48;0.82;;;0.60;;
39654;SDS011;25336;59.944;11.010;2023-07-20T03:48:18;0.63;;;0.63;;
39654;SDS011;25336;59.944;11.010;2023-07-20T03:50:46;0.82;;;0.80;;
39654;SDS011;25336;59.944;11.010;2023-07-20T03:53:14;3.25;;;0.80;;
39654;SDS011;25336;59.944;11.010;2023-07-20T03:55:41;0.60;;;0.60;;
39654;SDS011;25336;59.944;11.010;2023-07-20T03:58:14;0.60;;;0.60;;
39654;SDS011;25336;59.944;11.010;2023-07-20T04:00:40;2.08;;;1.02;;
39654;SDS011;25336;59.944;11.010;2023-07-20T04:03:08;0.60;;;0.55;;
39654;SDS011;25336;59.944;11.010;2023-07-20T04:05:33;0.73;;;0.70;;
39654;SDS011;25336;59.944;11.010;2023-07-20T04:07:59;0.73;;;0.50;;
39654;SDS011;25336;59.944;11.010;2023-07-20T04:10:25;0.50;;;0.50;;
39654;SDS011;25336;59.944;11.010;2023-07-20T04:12:50;0.52;;;0.52;;
39654;SDS011;25336;59.944;11.010;2023-07-20T04:15:16;0.82;;;0.60;;
39654;SDS011;25336;59.944;11.010;2023-07-20T04:17:42;0.60;;;0.60;;
39654;SDS011;25336;59.944;11.010;2023-07-20T04:20:08;0.50;;;0.50;;
39654;SDS011;25336;59.944;11.010;2023-07-20T04:22:34;0.88;;;0.60;;
39654;SDS011;25336;59.944;11.010;2023-07-20T04:25:00;0.43;;;0.43;;
39654;SDS011;25336;59.944;11.010;2023-07-20T04:27:26;0.50;;;0.50;;
39654;SDS011;25336;59.944;11.010;2023-07-20T04:29:51;1.30;;;0.60;;
39654;SDS011;25336;59.944;11.010;2023-07-20T04:32:17;0.50;;;0.50;;
39654;SDS011;25336;59.944;11.010;2023-07-20T04:34:43;0.73;;;0.60;;
39654;SDS011;25336;59.944;11.010;2023-07-20T04:37:08;0.75;;;0.50;;
39654;SDS011;25336;59.944;11.010;2023-07-20T04:39:34;0.63;;;0.63;;
39654;SDS011;25336;59.944;11.010;2023-07-20T04:42:00;0.50;;;0.50;;
39654;SDS011;25336;59.944;11.010;2023-07-20T04:44:25;0.60;;;0.60;;
39654;SDS011;25336;59.944;11.010;2023-07-20T04:46:51;0.40;;;0.40;;
39654;SDS011;25336;59.944;11.010;2023-07-20T04:49:17;0.45;;;0.45;;
39654;SDS011;25336;59.944;11.010;2023-07-20T04:51:42;0.60;;;0.60;;
39654;SDS011;25336;59.944;11.010;2023-07-20T04:54:08;1.05;;;0.60;;
39654;SDS011;25336;59.944;11.010;2023-07-20T04:56:34;1.30;;;0.55;;
39654;SDS011;25336;59.944;11.010;2023-07-20T04:58:59;0.50;;;0.50;;
39654;SDS011;25336;59.944;11.010;2023-07-20T05:01:25;0.50;;;0.50;;
39654;SDS011;25336;59.944;11.010;2023-07-20T05:03:51;0.50;;;0.50;;
39654;SDS011;25336;59.944;11.010;2023-07-20T05:06:17;0.50;;;0.50;;
39654;SDS011;25336;59.944;11.010;2023-07-20T05:08:44;0.88;;;0.40;;
39654;SDS011;25336;59.944;11.010;2023-07-20T05:11:10;3.72;;;0.60;;
39654;SDS011;25336;59.944;11.010;2023-07-20T05:13:36;0.50;;;0.50;;
39654;SDS011;25336;59.944;11.010;2023-07-20T05:16:02;2.35;;;0.40;;
39654;SDS011;25336;59.944;11.010;2023-07-20T05:18:28;0.40;;;0.40;;
39654;SDS011;25336;59.944;11.010;2023-07-20T05:20:54;0.40;;;0.40;;
39654;SDS011;25336;59.944;11.010;2023-07-20T05:23:20;0.52;;;0.52;;
39654;SDS011;25336;59.944;11.010;2023-07-20T05:25:47;0.50;;;0.50;;
39654;SDS011;25336;59.944;11.010;2023-07-20T05:28:18;0.40;;;0.40;;
39654;SDS011;25336;59.944;11.010;2023-07-20T05:30:44;0.57;;;0.55;;
39654;SDS011;25336;59.944;11.010;2023-07-20T05:33:10;5.38;;;0.65;;
39654;SDS011;25336;59.944;11.010;2023-07-20T05:35:36;0.88;;;0.40;;
39654;SDS011;25336;59.944;11.010;2023-07-20T05:38:02;0.68;;;0.52;;
39654;SDS011;25336;59.944;11.010;2023-07-20T05:40:30;0.32;;;0.32;;
39654;SDS011;25336;59.944;11.010;2023-07-20T05:42:56;0.75;;;0.30;;
39654;SDS011;25336;59.944;11.010;2023-07-20T05:45:22;1.98;;;0.57;;
39654;SDS011;25336;59.944;11.010;2023-07-20T05:47:47;0.73;;;0.60;;
39654;SDS011;25336;59.944;11.010;2023-07-20T05:50:13;0.40;;;0.40;;
39654;SDS011;25336;59.944;11.010;2023-07-20T05:52:39;0.43;;;0.40;;
39654;SDS011;25336;59.944;11.010;2023-07-20T05:55:05;0.40;;;0.40;;
39654;SDS011;25336;59.944;11.010;2023-07-20T05:57:31;0.40;;;0.40;;
39654;SDS011;25336;59.944;11.010;2023-07-20T05:59:57;0.40;;;0.40;;
39654;SDS011;25336;59.944;11.010;2023-07-20T06:02:23;0.30;;;0.30;;
39654;SDS011;25336;59.944;11.010;2023-07-20T06:04:48;0.40;;;0.40;;
39654;SDS011;25336;59.944;11.010;2023-07-20T06:07:14;0.30;;;0.30;;
39654;SDS011;25336;59.944;11.010;2023-07-20T06:09:40;0.30;;;0.30;;
39654;SDS011;25336;59.944;11.010;2023-07-20T06:12:06;0.30;;;0.30;;
39654;SDS011;25336;59.944;11.010;2023-07-20T06:14:32;0.30;;;0.30;;
39654;SDS011;25336;59.944;11.010;2023-07-20T06:16:58;0.60;;;0.30;;
39654;SDS011;25336;59.944;11.010;2023-07-20T06:19:24;0.22;;;0.22;;
39654;SDS011;25336;59.944;11.010;2023-07-20T06:21:50;0.30;;;0.30;;
39654;SDS011;25336;59.944;11.010;2023-07-20T06:24:16;0.30;;;0.30;;
39654;SDS011;25336;59.944;11.010;2023-07-20T06:26:42;0.40;;;0.40;;
39654;SDS011;25336;59.944;11.010;2023-07-20T06:29:08;0.30;;;0.30;;
39654;SDS011;25336;59.944;11.010;2023-07-20T06:31:34;0.30;;;0.30;;
39654;SDS011;25336;59.944;11.010;2023-07-20T06:34:00;0.50;;;0.50;;
39654;SDS011;25336;59.944;11.010;2023-07-20T06:36:26;0.35;;;0.35;;
39654;SDS011;25336;59.944;11.010;2023-07-20T06:38:51;0.32;;;0.32;;
39654;SDS011;25336;59.944;11.010;2023-07-20T06:41:18;0.30;;;0.30;;
39654;SDS011;25336;59.944;11.010;2023-07-20T06:43:44;0.80;;;0.30;;
39654;SDS011;25336;59.944;11.010;2023-07-20T06:46:10;0.40;;;0.40;;
39654;SDS011;25336;59.944;11.010;2023-07-20T06:48:36;0.70;;;0.70;;
39654;SDS011;25336;59.944;11.010;2023-07-20T06:51:01;0.30;;;0.30;;
39654;SDS011;25336;59.944;11.010;2023-07-20T06:53:28;0.30;;;0.30;;
39654;SDS011;25336;59.944;11.010;2023-07-20T06:55:57;0.28;;;0.28;;
39654;SDS011;25336;59.944;11.010;2023-07-20T06:58:23;0.65;;;0.30;;
39654;SDS011;25336;59.944;11.010;2023-07-20T07:00:49;0.40;;;0.38;;
39654;SDS011;25336;59.944;11.010;2023-07-20T07:03:15;0.30;;;0.30;;
39654;SDS011;25336;59.944;11.010;2023-07-20T07:05:41;0.30;;;0.30;;
39654;SDS011;25336;59.944;11.010;2023-07-20T07:08:07;0.30;;;0.30;;
39654;SDS011;25336;59.944;11.010;2023-07-20T07:10:34;0.30;;;0.30;;
39654;SDS011;25336;59.944;11.010;2023-07-20T07:13:00;0.30;;;0.30;;
39654;SDS011;25336;59.944;11.010;2023-07-20T07:15:26;0.28;;;0.28;;
39654;SDS011;25336;59.944;11.010;2023-07-20T07:17:52;0.30;;;0.30;;
39654;SDS011;25336;59.944;11.010;2023-07-20T07:20:18;0.47;;;0.30;;
39654;SDS011;25336;59.944;11.010;2023-07-20T07:22:44;2.30;;;0.40;;
39654;SDS011;25336;59.944;11.010;2023-07-20T07:25:10;0.30;;;0.30;;
39654;SDS011;25336;59.944;11.010;2023-07-20T07:27:36;2.00;;;0.65;;
39654;SDS011;25336;59.944;11.010;2023-07-20T07:30:05;0.30;;;0.30;;
39654;SDS011;25336;59.944;11.010;2023-07-20T07:32:31;1.38;;;0.40;;
39654;SDS011;25336;59.944;11.010;2023-07-20T07:34:57;2.97;;;0.40;;
39654;SDS011;25336;59.944;11.010;2023-07-20T07:37:25;0.60;;;0.30;;
39654;SDS011;25336;59.944;11.010;2023-07-20T07:39:51;0.38;;;0.38;;
39654;SDS011;25336;59.944;11.010;2023-07-20T07:42:17;0.32;;;0.30;;
39654;SDS011;25336;59.944;11.010;2023-07-20T07:44:43;0.40;;;0.30;;
39654;SDS011;25336;59.944;11.010;2023-07-20T07:47:09;0.85;;;0.30;;
39654;SDS011;25336;59.944;11.010;2023-07-20T07:49:35;0.30;;;0.30;;
39654;SDS011;25336;59.944;11.010;2023-07-20T07:52:01;0.20;;;0.20;;
39654;SDS011;25336;59.944;11.010;2023-07-20T07:54:29;0.40;;;0.40;;
39654;SDS011;25336;59.944;11.010;2023-07-20T07:56:55;0.55;;;0.38;;
39654;SDS011;25336;59.944;11.010;2023-07-20T07:59:21;0.35;;;0.30;;
39654;SDS011;25336;59.944;11.010;2023-07-20T08:01:47;6.10;;;0.88;;
39654;SDS011;25336;59.944;11.010;2023-07-20T08:04:13;0.20;;;0.20;;
39654;SDS011;25336;59.944;11.010;2023-07-20T08:06:38;0.20;;;0.20;;
39654;SDS011;25336;59.944;11.010;2023-07-20T08:09:04;0.20;;;0.20;;
39654;SDS011;25336;59.944;11.010;2023-07-20T08:11:30;0.90;;;0.40;;
39654;SDS011;25336;59.944;11.010;2023-07-20T08:13:58;0.47;;;0.47;;
39654;SDS011;25336;59.944;11.010;2023-07-20T08:16:27;1.17;;;0.30;;
39654;SDS011;25336;59.944;11.010;2023-07-20T08:18:53;0.25;;;0.25;;
39654;SDS011;25336;59.944;11.010;2023-07-20T08:21:19;0.38;;;0.30;;
39654;SDS011;25336;59.944;11.010;2023-07-20T08:23:45;0.30;;;0.30;;
39654;SDS011;25336;59.944;11.010;2023-07-20T08:26:10;1.27;;;0.30;;
39654;SDS011;25336;59.944;11.010;2023-07-20T08:28:36;0.40;;;0.40;;
39654;SDS011;25336;59.944;11.010;2023-07-20T08:31:02;0.47;;;0.40;;
39654;SDS011;25336;59.944;11.010;2023-07-20T08:33:30;0.40;;;0.40;;
39654;SDS011;25336;59.944;11.010;2023-07-20T08:35:58;0.30;;;0.30;;
39654;SDS011;25336;59.944;11.010;2023-07-20T08:38:26;0.20;;;0.20;;
39654;SDS011;25336;59.944;11.010;2023-07-20T08:40:51;0.22;;;0.22;;
39654;SDS011;25336;59.944;11.010;2023-07-20T08:43:19;0.35;;;0.20;;
39654;SDS011;25336;59.944;11.010;2023-07-20T08:45:48;0.47;;;0.30;;
39654;SDS011;25336;59.944;11.010;2023-07-20T08:48:16;0.20;;;0.20;;
39654;SDS011;25336;59.944;11.010;2023-07-20T08:50:45;4.57;;;0.30;;
39654;SDS011;25336;59.944;11.010;2023-07-20T08:53:12;0.40;;;0.30;;
39654;SDS011;25336;59.944;11.010;2023-07-20T08:55:39;0.22;;;0.20;;
39654;SDS011;25336;59.944;11.010;2023-07-20T08:58:08;0.95;;;0.30;;
39654;SDS011;25336;59.944;11.010;2023-07-20T09:00:37;0.20;;;0.20;;
39654;SDS011;25336;59.944;11.010;2023-07-20T09:03:03;0.20;;;0.20;;
39654;SDS011;25336;59.944;11.010;2023-07-20T09:05:30;2.05;;;0.30;;
39654;SDS011;25336;59.944;11.010;2023-07-20T09:07:56;0.30;;;0.30;;
39654;SDS011;25336;59.944;11.010;2023-07-20T09:10:22;0.28;;;0.28;;
39654;SDS011;25336;59.944;11.010;2023-07-20T09:12:48;0.25;;;0.25;;
39654;SDS011;25336;59.944;11.010;2023-07-20T09:15:15;0.20;;;0.20;;
39654;SDS011;25336;59.944;11.010;2023-07-20T09:17:45;0.68;;;0.30;;
39654;SDS011;25336;59.944;11.010;2023-07-20T09:20:13;0.20;;;0.20;;
39654;SDS011;25336;59.944;11.010;2023-07-20T09:22:40;2.35;;;0.20;;
39654;SDS011;25336;59.944;11.010;2023-07-20T09:25:07;0.22;;;0.20;;
39654;SDS011;25336;59.944;11.010;2023-07-20T09:27:40;0.20;;;0.20;;
39654;SDS011;25336;59.944;11.010;2023-07-20T09:30:10;0.20;;;0.20;;
39654;SDS011;25336;59.944;11.010;2023-07-20T09:32:48;0.50;;;0.20;;
39654;SDS011;25336;59.944;11.010;2023-07-20T09:35:24;0.30;;;0.30;;
39654;SDS011;25336;59.944;11.010;2023-07-20T09:40:18;0.88;;;0.32;;
39654;SDS011;25336;59.944;11.010;2023-07-20T09:42:44;0.20;;;0.20;;
39654;SDS011;25336;59.944;11.010;2023-07-20T09:45:10;0.20;;;0.20;;
39654;SDS011;25336;59.944;11.010;2023-07-20T09:47:37;0.50;;;0.30;;
39654;SDS011;25336;59.944;11.010;2023-07-20T09:50:03;0.73;;;0.40;;
39654;SDS011;25336;59.944;11.010;2023-07-20T09:52:30;0.75;;;0.30;;
39654;SDS011;25336;59.944;11.010;2023-07-20T09:54:57;0.30;;;0.28;;
39654;SDS011;25336;59.944;11.010;2023-07-20T09:57:23;0.30;;;0.30;;
39654;SDS011;25336;59.944;11.010;2023-07-20T09:59:51;0.20;;;0.20;;
39654;SDS011;25336;59.944;11.010;2023-07-20T10:02:20;0.65;;;0.20;;
39654;SDS011;25336;59.944;11.010;2023-07-20T10:04:51;4.65;;;0.35;;
39654;SDS011;25336;59.944;11.010;2023-07-20T10:07:19;0.20;;;0.20;;
39654;SDS011;25336;59.944;11.010;2023-07-20T10:09:48;0.20;;;0.20;;
39654;SDS011;25336;59.944;11.010;2023-07-20T10:12:17;0.20;;;0.20;;
39654;SDS011;25336;59.944;11.010;2023-07-20T10:14:48;1.38;;;0.30;;
39654;SDS011;25336;59.944;11.010;2023-07-20T10:17:24;0.20;;;0.20;;
39654;SDS011;25336;59.944;11.010;2023-07-20T10:19:52;0.20;;;0.20;;
39654;SDS011;25336;59.944;11.010;2023-07-20T10:22:25;0.43;;;0.30;;
39654;SDS011;25336;59.944;11.010;2023-07-20T10:24:52;0.47;;;0.30;;
39654;SDS011;25336;59.944;11.010;2023-07-20T10:27:22;0.25;;;0.25;;
39654;SDS011;25336;59.944;11.010;2023-07-20T10:29:48;0.20;;;0.20;;
39654;SDS011;25336;59.944;11.010;2023-07-20T10:32:15;0.20;;;0.20;;
39654;SDS011;25336;59.944;11.010;2023-07-20T10:34:42;7.32;;;0.68;;
39654;SDS011;25336;59.944;11.010;2023-07-20T10:37:07;0.65;;;0.30;;
39654;SDS011;25336;59.944;11.010;2023-07-20T10:39:33;0.20;;;0.20;;
39654;SDS011;25336;59.944;11.010;2023-07-20T10:42:00;0.30;;;0.30;;
39654;SDS011;25336;59.944;11.010;2023-07-20T10:44:27;0.40;;;0.30;;
39654;SDS011;25336;59.944;11.010;2023-07-20T10:46:56;0.20;;;0.20;;
39654;SDS011;25336;59.944;11.010;2023-07-20T10:49:30;0.20;;;0.20;;
39654;SDS011;25336;59.944;11.010;2023-07-20T10:51:59;0.20;;;0.20;;
39654;SDS011;25336;59.944;11.010;2023-07-20T10:56:55;2.08;;;0.20;;
39654;SDS011;25336;59.944;11.010;2023-07-20T11:01:51;0.20;;;0.20;;
39654;SDS011;25336;59.944;11.010;2023-07-20T11:04:37;0.20;;;0.20;;
39654;SDS011;25336;59.944;11.010;2023-07-20T11:07:04;0.30;;;0.30;;
39654;SDS011;25336;59.944;11.010;2023-07-20T11:09:33;0.68;;;0.38;;
39654;SDS011;25336;59.944;11.010;2023-07-20T11:12:12;0.20;;;0.20;;
39654;SDS011;25336;59.944;11.010;2023-07-20T11:14:40;0.20;;;0.20;;
39654;SDS011;25336;59.944;11.010;2023-07-20T11:17:11;0.20;;;0.20;;
39654;SDS011;25336;59.944;11.010;2023-07-20T11:19:38;0.82;;;0.38;;
39654;SDS011;25336;59.944;11.010;2023-07-20T11:22:05;1.75;;;0.20;;
39654;SDS011;25336;59.944;11.010;2023-07-20T11:24:37;1.17;;;0.50;;
39654;SDS011;25336;59.944;11.010;2023-07-20T11:27:04;0.95;;;0.30;;
39654;SDS011;25336;59.944;11.010;2023-07-20T11:29:30;0.40;;;0.40;;
39654;SDS011;25336;59.944;11.010;2023-07-20T11:31:56;0.20;;;0.20;;
39654;SDS011;25336;59.944;11.010;2023-07-20T11:34:23;0.30;;;0.30;;
39654;SDS011;25336;59.944;11.010;2023-07-20T11:36:49;0.20;;;0.20;;
39654;SDS011;25336;59.944;11.010;2023-07-20T11:39:16;0.10;;;0.10;;
39654;SDS011;25336;59.944;11.010;2023-07-20T11:41:47;0.20;;;0.20;;
39654;SDS011;25336;59.944;11.010;2023-07-20T11:44:15;0.20;;;0.20;;
39654;SDS011;25336;59.944;11.010;2023-07-20T11:46:42;0.20;;;0.20;;
39654;SDS011;25336;59.944;11.010;2023-07-20T11:49:09;0.32;;;0.20;;
39654;SDS011;25336;59.944;11.010;2023-07-20T11:51:35;0.95;;;0.17;;
39654;SDS011;25336;59.944;11.010;2023-07-20T11:54:02;0.20;;;0.20;;
39654;SDS011;25336;59.944;11.010;2023-07-20T11:56:29;3.03;;;0.20;;
39654;SDS011;25336;59.944;11.010;2023-07-20T11:58:56;0.20;;;0.20;;
39654;SDS011;25336;59.944;11.010;2023-07-20T12:01:24;0.20;;;0.20;;
39654;SDS011;25336;59.944;11.010;2023-07-20T12:03:54;0.20;;;0.20;;
39654;SDS011;25336;59.944;11.010;2023-07-20T12:06:24;0.13;;;0.13;;
39654;SDS011;25336;59.944;11.010;2023-07-20T12:08:50;0.20;;;0.20;;
39654;SDS011;25336;59.944;11.010;2023-07-20T12:11:38;1.25;;;0.20;;
39654;SDS011;25336;59.944;11.010;2023-07-20T12:14:07;0.10;;;0.10;;
39654;SDS011;25336;59.944;11.010;2023-07-20T12:16:34;0.10;;;0.10;;
39654;SDS011;25336;59.944;11.010;2023-07-20T12:21:30;0.75;;;0.10;;
39654;SDS011;25336;59.944;11.010;2023-07-20T12:23:59;0.20;;;0.20;;
39654;SDS011;25336;59.944;11.010;2023-07-20T12:26:25;0.20;;;0.20;;
39654;SDS011;25336;59.944;11.010;2023-07-20T12:28:54;0.10;;;0.10;;
39654;SDS011;25336;59.944;11.010;2023-07-20T12:31:20;0.20;;;0.20;;
39654;SDS011;25336;59.944;11.010;2023-07-20T12:33:47;0.22;;;0.22;;
39654;SDS011;25336;59.944;11.010;2023-07-20T12:36:14;0.10;;;0.10;;
39654;SDS011;25336;59.944;11.010;2023-07-20T12:38:40;0.10;;;0.10;;
39654;SDS011;25336;59.944;11.010;2023-07-20T12:41:07;0.10;;;0.10;;
39654;SDS011;25336;59.944;11.010;2023-07-20T12:43:33;0.38;;;0.20;;
39654;SDS011;25336;59.944;11.010;2023-07-20T12:45:59;0.20;;;0.20;;
39654;SDS011;25336;59.944;11.010;2023-07-20T12:48:24;0.17;;;0.17;;
39654;SDS011;25336;59.944;11.010;2023-07-20T12:50:50;0.10;;;0.10;;
39654;SDS011;25336;59.944;11.010;2023-07-20T12:53:16;0.20;;;0.20;;
39654;SDS011;25336;59.944;11.010;2023-07-20T12:55:42;0.13;;;0.13;;
39654;SDS011;25336;59.944;11.010;2023-07-20T12:58:08;0.10;;;0.10;;
39654;SDS011;25336;59.944;11.010;2023-07-20T13:00:34;0.40;;;0.20;;
39654;SDS011;25336;59.944;11.010;2023-07-20T13:02:59;0.20;;;0.20;;
39654;SDS011;25336;59.944;11.010;2023-07-20T13:05:30;0.10;;;0.10;;
39654;SDS011;25336;59.944;11.010;2023-07-20T13:07:56;0.20;;;0.20;;
39654;SDS011;25336;59.944;11.010;2023-07-20T13:10:23;0.20;;;0.20;;
39654;SDS011;25336;59.944;11.010;2023-07-20T13:12:49;0.75;;;0.20;;
39654;SDS011;25336;59.944;11.010;2023-07-20T13:15:15;0.90;;;0.13;;
39654;SDS011;25336;59.944;11.010;2023-07-20T13:17:42;0.20;;;0.20;;
39654;SDS011;25336;59.944;11.010;2023-07-20T13:20:08;0.20;;;0.20;;
39654;SDS011;25336;59.944;11.010;2023-07-20T13:22:39;0.10;;;0.10;;
39654;SDS011;25336;59.944;11.010;2023-07-20T13:25:05;0.25;;;0.10;;
39654;SDS011;25336;59.944;11.010;2023-07-20T13:27:35;0.22;;;0.10;;
39654;SDS011;25336;59.944;11.010;2023-07-20T13:30:01;0.10;;;0.10;;
39654;SDS011;25336;59.944;11.010;2023-07-20T13:32:31;0.10;;;0.10;;
39654;SDS011;25336;59.944;11.010;2023-07-20T13:34:57;0.10;;;0.10;;
39654;SDS011;25336;59.944;11.010;2023-07-20T13:37:23;0.10;;;0.10;;
39654;SDS011;25336;59.944;11.010;2023-07-20T13:39:48;0.17;;;0.17;;
39654;SDS011;25336;59.944;11.010;2023-07-20T13:42:14;0.40;;;0.28;;
39654;SDS011;25336;59.944;11.010;2023-07-20T13:44:40;0.85;;;0.30;;
39654;SDS011;25336;59.944;11.010;2023-07-20T13:47:06;1.85;;;0.20;;
39654;SDS011;25336;59.944;11.010;2023-07-20T13:49:31;1.33;;;0.40;;
39654;SDS011;25336;59.944;11.010;2023-07-20T13:51:57;0.20;;;0.20;;
39654;SDS011;25336;59.944;11.010;2023-07-20T13:54:23;0.38;;;0.20;;
39654;SDS011;25336;59.944;11.010;2023-07-20T13:56:49;0.85;;;0.50;;
39654;SDS011;25336;59.944;11.010;2023-07-20T13:59:16;0.55;;;0.20;;
39654;SDS011;25336;59.944;11.010;2023-07-20T14:01:42;1.10;;;0.40;;
39654;SDS011;25336;59.944;11.010;2023-07-20T14:04:08;0.40;;;0.40;;
39654;SDS011;25336;59.944;11.010;2023-07-20T14:06:34;0.30;;;0.30;;
39654;SDS011;25336;59.944;11.010;2023-07-20T14:09:01;0.30;;;0.30;;
39654;SDS011;25336;59.944;11.010;2023-07-20T14:11:28;0.20;;;0.20;;
39654;SDS011;25336;59.944;11.010;2023-07-20T14:13:54;0.95;;;0.30;;
39654;SDS011;25336;59.944;11.010;2023-07-20T14:16:20;0.38;;;0.30;;
39654;SDS011;25336;59.944;11.010;2023-07-20T14:18:46;0.70;;;0.68;;
39654;SDS011;25336;59.944;11.010;2023-07-20T14:21:13;1.17;;;0.30;;
39654;SDS011;25336;59.944;11.010;2023-07-20T14:23:39;0.50;;;0.30;;
39654;SDS011;25336;59.944;11.010;2023-07-20T14:26:05;0.57;;;0.30;;
39654;SDS011;25336;59.944;11.010;2023-07-20T14:28:31;1.00;;;0.32;;
39654;SDS011;25336;59.944;11.010;2023-07-20T14:30:57;0.30;;;0.30;;
39654;SDS011;25336;59.944;11.010;2023-07-20T14:33:22;0.20;;;0.20;;
39654;SDS011;25336;59.944;11.010;2023-07-20T14:35:48;0.30;;;0.30;;
39654;SDS011;25336;59.944;11.010;2023-07-20T14:38:14;0.63;;;0.20;;
39654;SDS011;25336;59.944;11.010;2023-07-20T14:40:39;0.65;;;0.20;;
39654;SDS011;25336;59.944;11.010;2023-07-20T14:43:06;0.75;;;0.28;;
39654;SDS011;25336;59.944;11.010;2023-07-20T14:45:32;0.20;;;0.20;;
39654;SDS011;25336;59.944;11.010;2023-07-20T14:47:57;0.77;;;0.20;;